createdAt,value
2017-01-04T00:07:17.945Z,282.4
2017-01-04T00:18:17.995Z,282.3
2017-01-04T00:29:18.295Z,282.1
2017-01-04T00:40:18.289Z,282.2
2017-01-04T00:51:18.192Z,282
2017-01-04T01:02:18.283Z,282.6
2017-01-04T01:13:18.045Z,282.5
2017-01-04T01:24:18.673Z,282.3
2017-01-04T01:35:18.402Z,282.2
2017-01-04T01:46:18.417Z,282.3
2017-01-04T01:57:18.709Z,282.7
2017-01-04T02:08:18.138Z,282.6
2017-01-04T02:19:19.587Z,282.7
2017-01-04T02:30:18.788Z,282.8
2017-01-04T02:41:18.073Z,282.9
2017-01-04T02:52:17.863Z,282.8
2017-01-04T03:03:18.048Z,282.5
2017-01-04T03:14:18.539Z,283.2
2017-01-04T03:25:18.121Z,283
2017-01-04T03:36:18.213Z,282.9
2017-01-04T03:47:17.800Z,283.1
2017-01-04T03:58:17.915Z,283.1
2017-01-04T04:09:18.036Z,282.8
2017-01-04T04:20:18.692Z,283.2
2017-01-04T04:31:18.428Z,282.1
2017-01-04T04:42:17.737Z,282.8
2017-01-04T04:53:18.321Z,283.2
2017-01-04T05:04:18.307Z,282.9
2017-01-04T05:15:18.645Z,283.4
2017-01-04T05:26:18.765Z,282.7
2017-01-04T05:37:18.082Z,283.1
2017-01-04T05:48:18.597Z,282.3
2017-01-04T05:59:18.608Z,282.6
2017-01-04T06:10:18.363Z,282.9
2017-01-04T06:21:18.138Z,282.7
2017-01-04T06:32:17.766Z,282.8
2017-01-04T06:43:17.881Z,282.4
2017-01-04T06:54:18.867Z,282.5
2017-01-04T07:05:17.750Z,282.7
2017-01-04T07:16:18.239Z,282.8
2017-01-04T07:27:17.959Z,282.5
2017-01-04T07:38:17.645Z,282.5
2017-01-04T07:49:17.773Z,282.2
2017-01-04T08:00:18.464Z,282.5
2017-01-04T08:11:18.181Z,282.7
2017-01-04T08:22:17.843Z,282.3
2017-01-04T08:33:18.097Z,282.5
2017-01-04T08:44:17.858Z,282.5
2017-01-04T08:55:18.190Z,282.6
2017-01-04T09:06:17.585Z,282
2017-01-04T09:17:18.383Z,282.7
2017-01-04T09:28:18.165Z,282.5
2017-01-04T09:39:18.570Z,282.5
2017-01-04T09:50:18.670Z,282.2
2017-01-04T10:01:18.264Z,282.4
2017-01-04T10:12:18.099Z,282.4
2017-01-04T10:23:18.164Z,282.3
2017-01-04T10:34:18.265Z,282.7
2017-01-04T10:45:18.158Z,282.1
2017-01-04T10:56:17.857Z,281.9
2017-01-04T11:07:18.079Z,281.6
2017-01-04T11:18:18.397Z,282.6
2017-01-04T11:29:18.220Z,282.8
2017-01-04T11:40:18.486Z,282.6
2017-01-04T11:51:18.328Z,282.1
2017-01-04T12:02:17.889Z,282.4
2017-01-04T12:13:18.649Z,282.9
2017-01-04T12:24:18.280Z,282.3
2017-01-04T12:35:18.278Z,282.3
2017-01-04T12:46:18.405Z,282.3
2017-01-04T12:57:18.302Z,282.2
2017-01-04T13:08:17.855Z,282.1
2017-01-04T13:19:18.205Z,282.7
2017-01-04T13:30:19.006Z,282.6
2017-01-04T13:41:18.107Z,282.3
2017-01-04T13:52:18.326Z,282.3
2017-01-04T14:03:18.182Z,281.9
2017-01-04T14:14:17.853Z,282.2
2017-01-04T14:25:18.187Z,281.7
2017-01-04T14:36:17.508Z,282.1
2017-01-04T14:47:18.277Z,281.9
2017-01-04T14:58:18.652Z,282.3
2017-01-04T15:09:18.471Z,282.4
2017-01-04T15:20:18.866Z,282.1
2017-01-04T15:31:18.174Z,281.4
2017-01-04T15:42:18.705Z,281.7
2017-01-04T15:53:18.111Z,281.7
2017-01-04T16:04:17.642Z,281.8
2017-01-04T16:15:18.533Z,282
2017-01-04T16:26:17.767Z,281.9
2017-01-04T16:37:17.992Z,282
2017-01-04T16:48:17.979Z,281.7
2017-01-04T16:59:17.816Z,282
2017-01-04T17:10:18.571Z,281.8
2017-01-04T17:21:18.804Z,282
2017-01-04T17:32:19.166Z,281.7
2017-01-04T17:43:17.620Z,281.7
2017-01-04T17:54:18.298Z,282
2017-01-04T18:05:18.109Z,281.9
2017-01-04T18:16:17.891Z,281.9
2017-01-04T18:27:17.950Z,281.7
2017-01-04T18:38:18.110Z,282
2017-01-04T18:49:18.929Z,281.9
2017-01-04T19:00:18.875Z,282.1
2017-01-04T19:11:17.712Z,281.9
2017-01-04T19:22:18.224Z,281.9
2017-01-04T19:33:17.566Z,280.9
2017-01-04T19:44:17.818Z,281.7
2017-01-04T19:55:18.775Z,281.5
2017-01-04T20:06:18.062Z,281.8
2017-01-04T20:17:18.705Z,282
2017-01-04T20:28:18.224Z,281.8
2017-01-04T20:39:18.699Z,281.5
2017-01-04T21:01:17.514Z,281.5
2017-01-04T21:12:18.564Z,281.5
2017-01-04T21:23:17.734Z,281.6
2017-01-04T21:34:17.843Z,281.2
2017-01-04T21:45:18.006Z,281.4
2017-01-04T21:56:18.043Z,280.8
2017-01-04T22:07:17.648Z,281
2017-01-04T22:18:18.337Z,281.4
2017-01-04T22:29:18.593Z,280.9
2017-01-04T22:40:18.481Z,280.7
2017-01-04T22:51:17.596Z,280.9
2017-01-04T23:02:17.955Z,281.3
2017-01-04T23:13:18.359Z,281.7
2017-01-04T23:24:18.398Z,281.4
2017-01-04T23:35:17.910Z,281.3
2017-01-04T23:46:18.245Z,281.5
2017-01-04T23:57:17.939Z,281.3
